sensor_id;sensor_type;location;lat;lon;timestamp;P1;durP1;ratioP1;P2;durP2;ratioP2
43154;SDS011;34212;51.018;13.586;2023-04-25T05:04:46;9.80;;;5.85;;
43154;SDS011;34212;51.018;13.586;2023-04-25T05:10:03;7.65;;;5.10;;
43154;SDS011;34212;51.018;13.586;2023-04-25T05:15:13;9.43;;;5.20;;
43154;SDS011;34212;51.018;13.586;2023-04-25T05:20:15;7.82;;;5.38;;
43154;SDS011;34212;51.018;13.586;2023-04-25T05:25:36;10.25;;;5.97;;
43154;SDS011;34212;51.018;13.586;2023-04-25T05:30:48;10.18;;;6.25;;
43154;SDS011;34212;51.018;13.586;2023-04-25T05:35:56;7.13;;;5.53;;
43154;SDS011;34212;51.018;13.586;2023-04-25T05:40:59;7.60;;;5.07;;
43154;SDS011;34212;51.018;13.586;2023-04-25T05:46:16;12.50;;;5.90;;
43154;SDS011;34212;51.018;13.586;2023-04-25T05:51:46;11.82;;;6.28;;
43154;SDS011;34212;51.018;13.586;2023-04-25T05:56:50;6.82;;;4.93;;
43154;SDS011;34212;51.018;13.586;2023-04-25T06:01:52;11.23;;;5.63;;
43154;SDS011;34212;51.018;13.586;2023-04-25T06:06:55;12.23;;;6.18;;
43154;SDS011;34212;51.018;13.586;2023-04-25T06:11:56;10.52;;;5.93;;
43154;SDS011;34212;51.018;13.586;2023-04-25T06:16:58;7.90;;;6.25;;
43154;SDS011;34212;51.018;13.586;2023-04-25T06:22:00;9.10;;;6.15;;
43154;SDS011;34212;51.018;13.586;2023-04-25T06:27:04;10.38;;;6.30;;
43154;SDS011;34212;51.018;13.586;2023-04-25T06:32:06;11.95;;;7.22;;
43154;SDS011;34212;51.018;13.586;2023-04-25T06:37:07;10.82;;;7.25;;
43154;SDS011;34212;51.018;13.586;2023-04-25T06:42:09;13.13;;;6.78;;
43154;SDS011;34212;51.018;13.586;2023-04-25T06:47:20;12.48;;;8.02;;
43154;SDS011;34212;51.018;13.586;2023-04-25T06:52:22;8.95;;;6.93;;
43154;SDS011;34212;51.018;13.586;2023-04-25T06:57:26;9.88;;;6.75;;
43154;SDS011;34212;51.018;13.586;2023-04-25T07:02:30;14.15;;;6.95;;
43154;SDS011;34212;51.018;13.586;2023-04-25T07:07:35;11.40;;;6.05;;
43154;SDS011;34212;51.018;13.586;2023-04-25T07:12:37;10.27;;;5.50;;
43154;SDS011;34212;51.018;13.586;2023-04-25T07:17:39;6.80;;;5.23;;
43154;SDS011;34212;51.018;13.586;2023-04-25T07:22:41;9.73;;;4.15;;
43154;SDS011;34212;51.018;13.586;2023-04-25T07:27:43;9.95;;;4.47;;
43154;SDS011;34212;51.018;13.586;2023-04-25T07:32:49;7.45;;;4.50;;
43154;SDS011;34212;51.018;13.586;2023-04-25T07:37:51;7.60;;;3.97;;
43154;SDS011;34212;51.018;13.586;2023-04-25T07:42:53;7.10;;;4.30;;
43154;SDS011;34212;51.018;13.586;2023-04-25T07:48:02;8.63;;;4.50;;
43154;SDS011;34212;51.018;13.586;2023-04-25T07:53:06;6.75;;;3.85;;
43154;SDS011;34212;51.018;13.586;2023-04-25T07:58:16;8.48;;;3.75;;
43154;SDS011;34212;51.018;13.586;2023-04-25T08:03:27;6.03;;;3.78;;
43154;SDS011;34212;51.018;13.586;2023-04-25T08:08:30;7.28;;;4.07;;
43154;SDS011;34212;51.018;13.586;2023-04-25T08:13:32;5.93;;;3.77;;
43154;SDS011;34212;51.018;13.586;2023-04-25T08:18:34;12.30;;;3.50;;
43154;SDS011;34212;51.018;13.586;2023-04-25T08:23:36;5.43;;;3.00;;
43154;SDS011;34212;51.018;13.586;2023-04-25T08:28:44;7.50;;;4.38;;
43154;SDS011;34212;51.018;13.586;2023-04-25T08:33:46;7.80;;;2.92;;
43154;SDS011;34212;51.018;13.586;2023-04-25T08:38:55;5.72;;;3.58;;
43154;SDS011;34212;51.018;13.586;2023-04-25T08:43:57;6.20;;;3.90;;
43154;SDS011;34212;51.018;13.586;2023-04-25T08:49:01;10.13;;;5.35;;
43154;SDS011;34212;51.018;13.586;2023-04-25T08:54:08;6.38;;;4.53;;
43154;SDS011;34212;51.018;13.586;2023-04-25T08:59:32;7.80;;;4.72;;
43154;SDS011;34212;51.018;13.586;2023-04-25T09:04:35;15.10;;;4.65;;
43154;SDS011;34212;51.018;13.586;2023-04-25T09:09:37;10.50;;;5.47;;
43154;SDS011;34212;51.018;13.586;2023-04-25T09:14:38;6.13;;;3.70;;
43154;SDS011;34212;51.018;13.586;2023-04-25T09:19:46;4.40;;;3.53;;
43154;SDS011;34212;51.018;13.586;2023-04-25T09:24:55;8.77;;;4.97;;
43154;SDS011;34212;51.018;13.586;2023-04-25T09:30:00;11.73;;;6.78;;
43154;SDS011;34212;51.018;13.586;2023-04-25T09:35:25;9.15;;;4.45;;
43154;SDS011;34212;51.018;13.586;2023-04-25T09:40:29;7.07;;;5.10;;
43154;SDS011;34212;51.018;13.586;2023-04-25T09:45:41;9.17;;;5.57;;
43154;SDS011;34212;51.018;13.586;2023-04-25T09:56:19;6.68;;;5.32;;
43154;SDS011;34212;51.018;13.586;2023-04-25T10:01:24;6.10;;;5.13;;
43154;SDS011;34212;51.018;13.586;2023-04-25T10:06:40;8.55;;;6.30;;
43154;SDS011;34212;51.018;13.586;2023-04-25T10:11:44;8.52;;;7.05;;
43154;SDS011;34212;51.018;13.586;2023-04-25T10:16:49;11.43;;;6.85;;
43154;SDS011;34212;51.018;13.586;2023-04-25T10:22:14;9.43;;;5.90;;
43154;SDS011;34212;51.018;13.586;2023-04-25T10:27:19;10.68;;;7.05;;
43154;SDS011;34212;51.018;13.586;2023-04-25T10:32:21;10.00;;;7.15;;
43154;SDS011;34212;51.018;13.586;2023-04-25T10:37:22;9.27;;;6.13;;
43154;SDS011;34212;51.018;13.586;2023-04-25T10:42:25;10.05;;;7.72;;
43154;SDS011;34212;51.018;13.586;2023-04-25T10:47:36;9.77;;;7.15;;
43154;SDS011;34212;51.018;13.586;2023-04-25T10:52:44;8.40;;;7.40;;
43154;SDS011;34212;51.018;13.586;2023-04-25T10:57:45;14.80;;;8.63;;
43154;SDS011;34212;51.018;13.586;2023-04-25T11:02:52;10.02;;;7.97;;
43154;SDS011;34212;51.018;13.586;2023-04-25T11:07:59;13.98;;;7.63;;
43154;SDS011;34212;51.018;13.586;2023-04-25T11:13:08;11.07;;;7.10;;
43154;SDS011;34212;51.018;13.586;2023-04-25T11:18:10;10.02;;;4.57;;
43154;SDS011;34212;51.018;13.586;2023-04-25T11:23:11;7.32;;;4.03;;
43154;SDS011;34212;51.018;13.586;2023-04-25T11:28:20;7.72;;;3.47;;
43154;SDS011;34212;51.018;13.586;2023-04-25T11:33:24;7.22;;;4.18;;
43154;SDS011;34212;51.018;13.586;2023-04-25T11:38:28;8.98;;;3.67;;
43154;SDS011;34212;51.018;13.586;2023-04-25T11:43:30;6.40;;;3.65;;
43154;SDS011;34212;51.018;13.586;2023-04-25T11:48:36;8.13;;;3.90;;
43154;SDS011;34212;51.018;13.586;2023-04-25T11:53:46;10.88;;;3.70;;
43154;SDS011;34212;51.018;13.586;2023-04-25T11:59:00;9.98;;;3.58;;
43154;SDS011;34212;51.018;13.586;2023-04-25T12:04:16;11.65;;;4.30;;
43154;SDS011;34212;51.018;13.586;2023-04-25T12:09:30;7.47;;;3.00;;
43154;SDS011;34212;51.018;13.586;2023-04-25T12:14:33;10.20;;;3.65;;
43154;SDS011;34212;51.018;13.586;2023-04-25T12:19:37;11.50;;;3.58;;
43154;SDS011;34212;51.018;13.586;2023-04-25T12:24:44;9.77;;;3.55;;
43154;SDS011;34212;51.018;13.586;2023-04-25T12:29:53;9.05;;;3.53;;
43154;SDS011;34212;51.018;13.586;2023-04-25T12:34:57;8.38;;;3.70;;
43154;SDS011;34212;51.018;13.586;2023-04-25T12:39:59;11.48;;;3.60;;
43154;SDS011;34212;51.018;13.586;2023-04-25T12:45:00;12.77;;;3.90;;
43154;SDS011;34212;51.018;13.586;2023-04-25T12:50:02;9.90;;;4.00;;
43154;SDS011;34212;51.018;13.586;2023-04-25T12:55:03;8.73;;;4.65;;
43154;SDS011;34212;51.018;13.586;2023-04-25T13:00:07;12.10;;;4.38;;
43154;SDS011;34212;51.018;13.586;2023-04-25T13:05:11;10.95;;;4.32;;
43154;SDS011;34212;51.018;13.586;2023-04-25T13:10:12;11.18;;;4.93;;
43154;SDS011;34212;51.018;13.586;2023-04-25T13:15:14;10.85;;;4.63;;
43154;SDS011;34212;51.018;13.586;2023-04-25T13:20:16;16.73;;;5.43;;
43154;SDS011;34212;51.018;13.586;2023-04-25T13:25:20;12.52;;;4.40;;
43154;SDS011;34212;51.018;13.586;2023-04-25T13:35:24;9.02;;;4.70;;
43154;SDS011;34212;51.018;13.586;2023-04-25T13:40:26;15.75;;;5.03;;
43154;SDS011;34212;51.018;13.586;2023-04-25T13:45:28;12.30;;;4.40;;
43154;SDS011;34212;51.018;13.586;2023-04-25T13:50:33;11.43;;;4.00;;
43154;SDS011;34212;51.018;13.586;2023-04-25T13:55:34;10.15;;;4.00;;
43154;SDS011;34212;51.018;13.586;2023-04-25T14:00:38;10.27;;;3.80;;
43154;SDS011;34212;51.018;13.586;2023-04-25T14:05:41;9.85;;;4.22;;
43154;SDS011;34212;51.018;13.586;2023-04-25T14:10:42;12.55;;;4.18;;
43154;SDS011;34212;51.018;13.586;2023-04-25T14:15:44;13.18;;;4.53;;
43154;SDS011;34212;51.018;13.586;2023-04-25T14:20:46;15.60;;;5.05;;
43154;SDS011;34212;51.018;13.586;2023-04-25T14:25:48;18.85;;;5.60;;
43154;SDS011;34212;51.018;13.586;2023-04-25T14:30:49;11.15;;;4.18;;
43154;SDS011;34212;51.018;13.586;2023-04-25T14:35:51;15.40;;;4.53;;
43154;SDS011;34212;51.018;13.586;2023-04-25T14:40:53;15.07;;;5.00;;
43154;SDS011;34212;51.018;13.586;2023-04-25T14:45:55;11.27;;;4.35;;
43154;SDS011;34212;51.018;13.586;2023-04-25T14:50:59;11.60;;;5.43;;
43154;SDS011;34212;51.018;13.586;2023-04-25T14:56:01;14.20;;;4.28;;
43154;SDS011;34212;51.018;13.586;2023-04-25T15:01:03;13.43;;;4.13;;
43154;SDS011;34212;51.018;13.586;2023-04-25T15:06:04;15.57;;;5.00;;
43154;SDS011;34212;51.018;13.586;2023-04-25T15:16:08;9.68;;;2.90;;
43154;SDS011;34212;51.018;13.586;2023-04-25T15:21:11;10.45;;;3.03;;
43154;SDS011;34212;51.018;13.586;2023-04-25T15:26:12;11.73;;;2.65;;
43154;SDS011;34212;51.018;13.586;2023-04-25T15:31:14;8.07;;;2.63;;
43154;SDS011;34212;51.018;13.586;2023-04-25T15:36:15;13.93;;;2.80;;
43154;SDS011;34212;51.018;13.586;2023-04-25T15:41:18;12.40;;;3.35;;
43154;SDS011;34212;51.018;13.586;2023-04-25T15:46:20;8.32;;;2.33;;
43154;SDS011;34212;51.018;13.586;2023-04-25T15:51:24;10.77;;;2.40;;
43154;SDS011;34212;51.018;13.586;2023-04-25T15:56:26;7.57;;;2.40;;
43154;SDS011;34212;51.018;13.586;2023-04-25T16:01:28;6.57;;;2.03;;
43154;SDS011;34212;51.018;13.586;2023-04-25T16:11:33;11.80;;;2.53;;
43154;SDS011;34212;51.018;13.586;2023-04-25T16:16:34;8.10;;;2.25;;
43154;SDS011;34212;51.018;13.586;2023-04-25T16:21:36;11.15;;;3.00;;
43154;SDS011;34212;51.018;13.586;2023-04-25T16:26:38;7.47;;;2.90;;
43154;SDS011;34212;51.018;13.586;2023-04-25T16:31:40;12.88;;;4.65;;
43154;SDS011;34212;51.018;13.586;2023-04-25T16:36:42;9.43;;;2.20;;
43154;SDS011;34212;51.018;13.586;2023-04-25T16:41:44;10.77;;;2.35;;
43154;SDS011;34212;51.018;13.586;2023-04-25T16:46:46;3.47;;;1.73;;
43154;SDS011;34212;51.018;13.586;2023-04-25T16:51:47;5.35;;;1.92;;
43154;SDS011;34212;51.018;13.586;2023-04-25T16:56:49;3.88;;;2.08;;
43154;SDS011;34212;51.018;13.586;2023-04-25T17:01:51;7.03;;;2.00;;
43154;SDS011;34212;51.018;13.586;2023-04-25T17:06:53;5.32;;;2.20;;
43154;SDS011;34212;51.018;13.586;2023-04-25T17:11:54;6.03;;;1.85;;
43154;SDS011;34212;51.018;13.586;2023-04-25T17:16:56;6.18;;;2.42;;
43154;SDS011;34212;51.018;13.586;2023-04-25T17:21:57;6.68;;;2.60;;
43154;SDS011;34212;51.018;13.586;2023-04-25T17:26:59;7.53;;;2.00;;
43154;SDS011;34212;51.018;13.586;2023-04-25T17:32:01;4.03;;;2.23;;
43154;SDS011;34212;51.018;13.586;2023-04-25T17:37:03;5.28;;;2.63;;
43154;SDS011;34212;51.018;13.586;2023-04-25T17:42:04;9.43;;;2.00;;
43154;SDS011;34212;51.018;13.586;2023-04-25T17:47:07;5.73;;;2.27;;
43154;SDS011;34212;51.018;13.586;2023-04-25T17:57:11;4.32;;;1.80;;
43154;SDS011;34212;51.018;13.586;2023-04-25T18:02:13;7.93;;;1.90;;
43154;SDS011;34212;51.018;13.586;2023-04-25T18:07:15;5.72;;;2.10;;
43154;SDS011;34212;51.018;13.586;2023-04-25T18:12:17;10.32;;;2.33;;
43154;SDS011;34212;51.018;13.586;2023-04-25T18:17:18;7.40;;;3.13;;
43154;SDS011;34212;51.018;13.586;2023-04-25T18:22:22;6.18;;;2.38;;
43154;SDS011;34212;51.018;13.586;2023-04-25T18:27:24;9.23;;;2.90;;
43154;SDS011;34212;51.018;13.586;2023-04-25T18:32:25;7.82;;;2.90;;
43154;SDS011;34212;51.018;13.586;2023-04-25T18:37:28;7.15;;;2.95;;
43154;SDS011;34212;51.018;13.586;2023-04-25T18:42:30;5.28;;;2.42;;
43154;SDS011;34212;51.018;13.586;2023-04-25T18:47:32;6.88;;;3.00;;
43154;SDS011;34212;51.018;13.586;2023-04-25T18:52:33;9.10;;;2.97;;
43154;SDS011;34212;51.018;13.586;2023-04-25T18:57:35;9.02;;;2.72;;
43154;SDS011;34212;51.018;13.586;2023-04-25T19:02:38;6.07;;;2.70;;
43154;SDS011;34212;51.018;13.586;2023-04-25T19:07:39;9.75;;;3.13;;
43154;SDS011;34212;51.018;13.586;2023-04-25T19:12:41;9.13;;;3.50;;
43154;SDS011;34212;51.018;13.586;2023-04-25T19:17:43;11.52;;;4.47;;
43154;SDS011;34212;51.018;13.586;2023-04-25T19:22:44;7.22;;;2.55;;
43154;SDS011;34212;51.018;13.586;2023-04-25T19:27:45;8.73;;;2.92;;
43154;SDS011;34212;51.018;13.586;2023-04-25T19:32:47;6.53;;;2.45;;
43154;SDS011;34212;51.018;13.586;2023-04-25T19:37:49;7.25;;;2.50;;
43154;SDS011;34212;51.018;13.586;2023-04-25T19:42:50;8.23;;;2.35;;
43154;SDS011;34212;51.018;13.586;2023-04-25T19:47:52;6.35;;;2.30;;
43154;SDS011;34212;51.018;13.586;2023-04-25T19:52:54;4.32;;;2.20;;
43154;SDS011;34212;51.018;13.586;2023-04-25T19:57:56;4.70;;;2.07;;
43154;SDS011;34212;51.018;13.586;2023-04-25T20:02:58;4.15;;;2.38;;
43154;SDS011;34212;51.018;13.586;2023-04-25T20:07:59;10.30;;;2.83;;
43154;SDS011;34212;51.018;13.586;2023-04-25T20:13:01;6.18;;;2.45;;
43154;SDS011;34212;51.018;13.586;2023-04-25T20:18:02;7.15;;;1.95;;
43154;SDS011;34212;51.018;13.586;2023-04-25T20:23:04;7.05;;;2.17;;
43154;SDS011;34212;51.018;13.586;2023-04-25T20:28:06;8.23;;;2.70;;
43154;SDS011;34212;51.018;13.586;2023-04-25T20:33:07;8.15;;;3.10;;
43154;SDS011;34212;51.018;13.586;2023-04-25T20:38:09;6.00;;;2.50;;
43154;SDS011;34212;51.018;13.586;2023-04-25T20:43:12;10.13;;;2.77;;
43154;SDS011;34212;51.018;13.586;2023-04-25T20:48:14;9.02;;;2.60;;
43154;SDS011;34212;51.018;13.586;2023-04-25T20:53:15;4.13;;;1.80;;
43154;SDS011;34212;51.018;13.586;2023-04-25T20:58:17;4.65;;;1.92;;
43154;SDS011;34212;51.018;13.586;2023-04-25T21:03:18;7.43;;;2.20;;
43154;SDS011;34212;51.018;13.586;2023-04-25T21:08:21;3.47;;;1.85;;
43154;SDS011;34212;51.018;13.586;2023-04-25T21:13:22;5.00;;;1.92;;
43154;SDS011;34212;51.018;13.586;2023-04-25T21:18:24;6.68;;;1.98;;
43154;SDS011;34212;51.018;13.586;2023-04-25T21:23:25;5.97;;;2.00;;
43154;SDS011;34212;51.018;13.586;2023-04-25T21:28:27;4.80;;;2.40;;
43154;SDS011;34212;51.018;13.586;2023-04-25T21:33:28;3.97;;;1.70;;
43154;SDS011;34212;51.018;13.586;2023-04-25T21:38:30;6.63;;;2.60;;
43154;SDS011;34212;51.018;13.586;2023-04-25T21:43:32;8.20;;;2.38;;
43154;SDS011;34212;51.018;13.586;2023-04-25T21:48:33;4.43;;;2.00;;
43154;SDS011;34212;51.018;13.586;2023-04-25T21:53:35;8.30;;;2.00;;
43154;SDS011;34212;51.018;13.586;2023-04-25T21:58:36;10.90;;;2.72;;
